createdAt,value
2019-05-26T00:02:30.128Z,13.14
2019-05-26T00:05:34.209Z,13.16
2019-05-26T00:08:38.878Z,13.22
2019-05-26T00:11:43.204Z,13.25
2019-05-26T00:14:47.603Z,13.31
2019-05-26T00:17:52.213Z,13.38
2019-05-26T00:20:56.220Z,13.49
2019-05-26T00:24:00.244Z,13.62
2019-05-26T00:27:04.630Z,13.67
2019-05-26T00:30:09.932Z,13.80
2019-05-26T00:33:14.177Z,13.89
2019-05-26T00:36:18.406Z,13.94
2019-05-26T00:39:22.425Z,13.94
2019-05-26T00:42:26.556Z,13.99
2019-05-26T00:45:30.849Z,13.96
2019-05-26T00:48:34.907Z,13.92
2019-05-26T00:51:39.331Z,13.87
2019-05-26T00:54:44.335Z,13.80
2019-05-26T00:57:48.660Z,13.70
2019-05-26T01:00:52.679Z,13.65
2019-05-26T01:03:56.688Z,13.61
2019-05-26T01:07:00.768Z,13.47
2019-05-26T01:10:05.265Z,13.37
2019-05-26T01:13:09.861Z,13.26
2019-05-26T01:16:13.885Z,13.14
2019-05-26T01:19:18.531Z,13.04
2019-05-26T01:22:23.132Z,13.00
2019-05-26T01:25:27.162Z,12.90
2019-05-26T01:28:31.112Z,12.87
2019-05-26T01:31:35.120Z,12.87
2019-05-26T01:34:39.403Z,12.87
2019-05-26T01:37:43.709Z,12.84
2019-05-26T01:40:48.152Z,12.77
2019-05-26T01:43:52.469Z,12.73
2019-05-26T01:46:57.203Z,12.67
2019-05-26T01:50:01.247Z,12.56
2019-05-26T01:53:06.263Z,12.48
2019-05-26T01:56:10.892Z,12.48
2019-05-26T01:59:14.988Z,12.45
2019-05-26T02:02:19.356Z,12.39
2019-05-26T02:05:23.760Z,12.34
2019-05-26T02:08:38.932Z,12.32
2019-05-26T02:11:33.446Z,12.26
2019-05-26T02:14:37.711Z,12.20
2019-05-26T02:17:41.638Z,12.18
2019-05-26T02:20:45.907Z,12.10
2019-05-26T02:23:49.824Z,12.06
2019-05-26T02:26:53.762Z,12.01
2019-05-26T02:29:57.808Z,12.01
2019-05-26T02:33:01.752Z,11.93
2019-05-26T02:36:06.108Z,11.84
2019-05-26T02:39:10.494Z,11.76
2019-05-26T02:42:14.712Z,11.76
2019-05-26T02:45:21.165Z,11.77
2019-05-26T02:48:25.213Z,11.77
2019-05-26T02:51:29.296Z,11.70
2019-05-26T02:54:33.638Z,11.60
2019-05-26T02:57:37.993Z,11.58
2019-05-26T03:00:44.392Z,11.60
2019-05-26T03:03:48.964Z,11.56
2019-05-26T03:06:53.888Z,11.49
2019-05-26T03:09:59.456Z,11.49
2019-05-26T03:13:05.191Z,11.45
2019-05-26T03:16:11.350Z,11.31
2019-05-26T03:19:17.654Z,11.21
2019-05-26T03:22:23.535Z,11.16
2019-05-26T03:25:29.356Z,11.06
2019-05-26T03:28:33.365Z,11.02
2019-05-26T03:31:37.724Z,11.02
2019-05-26T03:34:41.917Z,11.01
2019-05-26T03:37:46.043Z,11.04
2019-05-26T03:40:50.292Z,11.01
2019-05-26T03:43:54.178Z,11.03
2019-05-26T03:46:58.492Z,11.07
2019-05-26T03:50:02.460Z,11.12
2019-05-26T03:53:06.822Z,11.18
2019-05-26T03:56:10.925Z,11.23
2019-05-26T03:59:18.196Z,11.25
2019-05-26T04:02:22.529Z,11.25
2019-05-26T04:05:26.912Z,11.26
2019-05-26T04:08:30.916Z,11.26
2019-05-26T04:11:34.786Z,11.29
2019-05-26T04:14:39.375Z,11.29
2019-05-26T04:17:44.017Z,11.33
2019-05-26T04:20:48.329Z,11.28
2019-05-26T04:23:52.362Z,11.32
2019-05-26T04:26:57.118Z,11.38
2019-05-26T04:30:01.127Z,11.44
2019-05-26T04:33:05.519Z,11.52
2019-05-26T04:36:09.549Z,11.53
2019-05-26T04:39:13.855Z,11.49
2019-05-26T04:42:17.718Z,11.50
2019-05-26T04:45:21.672Z,11.54
2019-05-26T04:48:25.727Z,11.61
2019-05-26T04:51:29.665Z,11.71
2019-05-26T04:54:33.673Z,11.78
2019-05-26T04:57:38.420Z,11.99
2019-05-26T05:00:42.434Z,13.77
2019-05-26T05:03:46.364Z,15.53
2019-05-26T05:06:50.582Z,16.92
2019-05-26T05:09:54.516Z,17.96
2019-05-26T05:12:59.116Z,18.89
2019-05-26T05:16:03.576Z,19.59
2019-05-26T05:19:07.586Z,20.05
2019-05-26T05:22:11.681Z,20.55
2019-05-26T05:25:15.934Z,21.01
2019-05-26T05:28:19.894Z,21.52
2019-05-26T05:31:24.004Z,21.68
2019-05-26T05:34:28.013Z,21.91
2019-05-26T05:37:32.212Z,22.27
2019-05-26T05:40:36.578Z,22.40
2019-05-26T05:43:40.675Z,22.40
2019-05-26T05:46:44.656Z,22.26
2019-05-26T05:49:48.595Z,22.34
2019-05-26T05:52:52.925Z,22.38
2019-05-26T05:55:57.264Z,22.69
2019-05-26T05:59:01.224Z,23.16
2019-05-26T06:02:05.648Z,23.61
2019-05-26T06:05:09.781Z,24.20
2019-05-26T06:08:13.724Z,24.20
2019-05-26T06:11:17.739Z,24.20
2019-05-26T06:14:22.049Z,24.13
2019-05-26T06:17:26.061Z,24.11
2019-05-26T06:20:30.000Z,24.34
2019-05-26T06:23:36.832Z,24.61
2019-05-26T06:26:39.668Z,25.00
2019-05-26T06:29:57.899Z,25.37
2019-05-26T06:32:49.415Z,25.63
2019-05-26T06:35:53.481Z,26.00
2019-05-26T06:38:57.426Z,25.66
2019-05-26T06:42:02.359Z,25.82
2019-05-26T06:45:06.674Z,26.00
2019-05-26T06:48:11.310Z,26.23
2019-05-26T06:51:15.633Z,26.36
2019-05-26T06:54:19.890Z,26.47
2019-05-26T06:57:23.929Z,26.41
2019-05-26T07:00:27.903Z,26.17
2019-05-26T07:03:31.915Z,26.37
2019-05-26T07:06:35.941Z,26.37
2019-05-26T07:09:40.140Z,26.00
2019-05-26T07:12:44.527Z,26.08
2019-05-26T07:15:49.089Z,26.00
2019-05-26T07:18:53.365Z,26.34
2019-05-26T07:21:58.351Z,26.65
2019-05-26T07:25:02.470Z,26.76
2019-05-26T07:28:07.261Z,26.69
2019-05-26T07:31:11.280Z,26.78
2019-05-26T07:34:15.743Z,27.00
2019-05-26T07:37:20.153Z,27.04
2019-05-26T07:40:24.147Z,27.07
2019-05-26T07:43:28.422Z,26.81
2019-05-26T07:46:32.832Z,26.57
2019-05-26T07:49:37.378Z,26.30
2019-05-26T07:52:41.937Z,26.17
2019-05-26T07:55:46.107Z,26.40
2019-05-26T07:58:50.523Z,26.66
2019-05-26T08:01:54.668Z,26.69
2019-05-26T08:04:58.736Z,26.74
2019-05-26T08:08:12.795Z,26.58
2019-05-26T08:11:09.456Z,25.93
2019-05-26T08:14:13.783Z,25.07
2019-05-26T08:17:17.877Z,23.68
2019-05-26T08:20:21.893Z,22.82
2019-05-26T08:23:26.028Z,22.15
2019-05-26T08:26:30.027Z,21.92
2019-05-26T08:29:34.290Z,21.59
2019-05-26T08:32:38.592Z,21.55
2019-05-26T08:35:42.879Z,21.63
2019-05-26T08:38:47.238Z,21.62
2019-05-26T08:41:51.564Z,21.74
2019-05-26T08:44:55.884Z,21.86
2019-05-26T08:47:59.927Z,22.08
2019-05-26T08:51:04.007Z,22.31
2019-05-26T08:54:08.585Z,22.59
2019-05-26T08:57:12.597Z,22.63
2019-05-26T09:00:17.873Z,22.72
2019-05-26T09:03:21.984Z,22.79
2019-05-26T09:06:25.916Z,23.05
2019-05-26T09:09:30.159Z,23.42
2019-05-26T09:12:34.478Z,23.76
2019-05-26T09:15:38.903Z,23.72
2019-05-26T09:18:42.848Z,24.05
2019-05-26T09:21:47.018Z,24.23
2019-05-26T09:24:51.035Z,23.71
2019-05-26T09:27:55.993Z,23.53
2019-05-26T09:31:00.328Z,23.81
2019-05-26T09:34:04.576Z,23.76
2019-05-26T09:37:08.957Z,24.29
2019-05-26T09:40:14.482Z,24.30
2019-05-26T09:43:18.549Z,24.40
2019-05-26T09:46:22.581Z,24.46
2019-05-26T09:49:26.656Z,24.46
2019-05-26T09:52:30.707Z,24.43
2019-05-26T09:55:35.006Z,24.25
2019-05-26T09:58:38.943Z,24.36
2019-05-26T10:01:43.233Z,24.25
2019-05-26T10:04:47.106Z,24.23
2019-05-26T10:07:51.053Z,24.26
2019-05-26T10:10:55.101Z,24.36
2019-05-26T10:13:59.804Z,24.34
2019-05-26T10:17:04.023Z,24.39
2019-05-26T10:20:09.084Z,24.46
2019-05-26T10:23:13.091Z,24.37
2019-05-26T10:26:17.035Z,24.09
2019-05-26T10:29:21.015Z,24.21
2019-05-26T10:32:25.739Z,24.55
2019-05-26T10:35:29.761Z,24.75
2019-05-26T10:38:33.853Z,24.52
2019-05-26T10:41:37.860Z,24.89
2019-05-26T10:44:41.803Z,24.73
2019-05-26T10:47:46.153Z,24.56
2019-05-26T10:50:50.096Z,24.61
2019-05-26T10:53:54.608Z,24.67
2019-05-26T10:56:58.788Z,24.69
2019-05-26T11:00:02.822Z,24.62
2019-05-26T11:03:07.437Z,24.49
2019-05-26T11:06:11.780Z,24.42
2019-05-26T11:09:16.658Z,24.43
2019-05-26T11:12:21.016Z,24.48
2019-05-26T11:15:25.492Z,24.46
2019-05-26T11:18:29.346Z,24.42
2019-05-26T11:21:34.104Z,24.51
2019-05-26T11:24:38.565Z,24.43
2019-05-26T11:27:42.561Z,24.45
2019-05-26T11:30:46.627Z,24.38
2019-05-26T11:33:50.543Z,24.37
2019-05-26T11:36:54.485Z,24.70
2019-05-26T11:39:58.798Z,25.43
2019-05-26T11:43:15.628Z,25.91
2019-05-26T11:46:08.951Z,25.96
2019-05-26T11:49:13.196Z,26.12
2019-05-26T11:52:20.184Z,25.95
2019-05-26T11:55:23.433Z,25.89
2019-05-26T11:58:27.856Z,25.96
2019-05-26T12:01:32.131Z,25.79
2019-05-26T12:04:35.971Z,25.74
2019-05-26T12:07:40.480Z,25.77
2019-05-26T12:10:44.566Z,25.60
2019-05-26T12:13:48.755Z,25.90
2019-05-26T12:16:52.658Z,26.20
2019-05-26T12:19:57.038Z,26.26
2019-05-26T12:23:01.564Z,26.15
2019-05-26T12:26:05.727Z,26.16
2019-05-26T12:29:10.412Z,26.01
2019-05-26T12:32:14.858Z,25.69
2019-05-26T12:35:19.881Z,25.29
2019-05-26T12:38:24.205Z,25.19
2019-05-26T12:41:28.677Z,25.39
2019-05-26T12:44:32.716Z,25.29
2019-05-26T12:47:37.086Z,25.46
2019-05-26T12:50:41.931Z,25.35
2019-05-26T12:53:46.164Z,24.99
2019-05-26T12:56:50.676Z,24.94
2019-05-26T12:59:54.671Z,25.07
2019-05-26T13:02:59.004Z,25.45
2019-05-26T13:06:03.016Z,25.88
2019-05-26T13:09:09.701Z,26.12
2019-05-26T13:12:13.718Z,25.95
2019-05-26T13:15:18.280Z,25.98
2019-05-26T13:18:22.567Z,26.25
2019-05-26T13:21:26.874Z,26.42
2019-05-26T13:24:31.192Z,26.54
2019-05-26T13:27:35.360Z,26.73
2019-05-26T13:30:39.304Z,26.85
2019-05-26T13:33:43.236Z,26.65
2019-05-26T13:36:47.577Z,26.65
2019-05-26T13:39:52.193Z,26.47
2019-05-26T13:42:56.074Z,26.59
2019-05-26T13:46:00.324Z,26.95
2019-05-26T13:49:04.403Z,26.97
2019-05-26T13:52:09.804Z,26.48
2019-05-26T13:55:14.812Z,26.49
2019-05-26T13:58:19.153Z,26.47
2019-05-26T14:01:23.161Z,26.53
2019-05-26T14:04:27.332Z,26.59
2019-05-26T14:07:31.852Z,26.47
2019-05-26T14:10:36.724Z,26.54
2019-05-26T14:13:41.484Z,26.54
2019-05-26T14:16:46.766Z,26.81
2019-05-26T14:19:52.329Z,26.66
2019-05-26T14:22:56.263Z,26.40
2019-05-26T14:26:00.623Z,26.35
2019-05-26T14:29:05.039Z,26.36
2019-05-26T14:32:09.055Z,26.62
2019-05-26T14:35:13.690Z,26.86
2019-05-26T14:38:17.554Z,26.96
2019-05-26T14:41:22.128Z,26.66
2019-05-26T14:44:26.363Z,26.45
2019-05-26T14:47:30.474Z,26.44
2019-05-26T14:50:34.786Z,26.34
2019-05-26T14:53:38.882Z,26.45
2019-05-26T14:56:43.430Z,26.68
2019-05-26T14:59:47.862Z,26.64
2019-05-26T15:02:52.182Z,26.61
2019-05-26T15:06:05.400Z,26.63
2019-05-26T15:09:02.354Z,26.62
2019-05-26T15:12:06.799Z,27.16
2019-05-26T15:15:11.131Z,27.13
2019-05-26T15:18:15.278Z,27.16
2019-05-26T15:21:19.267Z,26.95
2019-05-26T15:24:23.583Z,26.91
2019-05-26T15:27:27.892Z,27.02
2019-05-26T15:30:31.926Z,27.12
2019-05-26T15:33:35.961Z,27.01
2019-05-26T15:36:40.243Z,26.87
2019-05-26T15:39:44.464Z,26.59
2019-05-26T15:42:48.483Z,26.20
2019-05-26T15:45:52.630Z,25.95
2019-05-26T15:48:56.857Z,25.81
2019-05-26T15:52:00.962Z,25.95
2019-05-26T15:55:05.385Z,25.95
2019-05-26T15:58:09.403Z,26.00
2019-05-26T16:01:13.542Z,25.98
2019-05-26T16:04:17.575Z,25.96
2019-05-26T16:07:21.852Z,25.81
2019-05-26T16:10:26.173Z,25.70
2019-05-26T16:13:30.592Z,25.52
2019-05-26T16:16:41.335Z,25.37
2019-05-26T16:19:40.879Z,25.53
2019-05-26T16:22:44.947Z,25.77
2019-05-26T16:25:48.928Z,26.01
2019-05-26T16:28:53.298Z,26.33
2019-05-26T16:31:57.411Z,26.32
2019-05-26T16:35:01.539Z,26.22
2019-05-26T16:38:05.681Z,26.01
2019-05-26T16:41:09.713Z,25.84
2019-05-26T16:44:14.126Z,25.80
2019-05-26T16:47:18.555Z,25.69
2019-05-26T16:50:22.656Z,25.56
2019-05-26T16:53:27.129Z,25.65
2019-05-26T16:56:31.720Z,25.78
2019-05-26T16:59:35.737Z,25.74
2019-05-26T17:02:39.751Z,25.65
2019-05-26T17:05:43.995Z,25.53
2019-05-26T17:08:48.264Z,25.31
2019-05-26T17:11:52.361Z,25.16
2019-05-26T17:14:57.091Z,24.95
2019-05-26T17:18:00.955Z,24.80
2019-05-26T17:21:05.583Z,24.67
2019-05-26T17:24:09.950Z,24.50
2019-05-26T17:27:14.308Z,24.36
2019-05-26T17:30:21.978Z,24.19
2019-05-26T17:33:24.815Z,24.03
2019-05-26T17:36:29.195Z,23.99
2019-05-26T17:39:33.195Z,23.96
2019-05-26T17:42:37.471Z,23.92
2019-05-26T17:45:41.727Z,23.83
2019-05-26T17:48:45.742Z,23.75
2019-05-26T17:51:49.992Z,23.70
2019-05-26T17:54:54.384Z,23.60
2019-05-26T17:57:58.437Z,23.53
2019-05-26T18:01:02.803Z,23.44
2019-05-26T18:04:07.124Z,23.34
2019-05-26T18:07:11.216Z,23.20
2019-05-26T18:10:15.522Z,23.09
2019-05-26T18:13:19.561Z,22.92
2019-05-26T18:16:23.676Z,22.78
2019-05-26T18:19:29.739Z,22.62
2019-05-26T18:22:34.071Z,22.48
2019-05-26T18:25:38.716Z,22.30
2019-05-26T18:28:43.343Z,22.12
2019-05-26T18:31:47.587Z,22.01
2019-05-26T18:34:52.089Z,21.93
2019-05-26T18:37:56.515Z,21.72
2019-05-26T18:41:01.683Z,21.49
2019-05-26T18:44:05.747Z,21.25
2019-05-26T18:47:09.949Z,21.11
2019-05-26T18:50:14.436Z,20.98
2019-05-26T18:53:18.928Z,20.87
2019-05-26T18:56:22.877Z,20.77
2019-05-26T18:59:26.913Z,20.66
2019-05-26T19:02:31.113Z,20.55
2019-05-26T19:05:38.309Z,20.43
2019-05-26T19:08:41.320Z,20.34
2019-05-26T19:11:45.330Z,20.27
2019-05-26T19:14:50.319Z,20.12
2019-05-26T19:17:54.967Z,20.05
2019-05-26T19:20:59.436Z,19.99
2019-05-26T19:24:03.448Z,19.92
2019-05-26T19:27:07.500Z,19.86
2019-05-26T19:30:12.129Z,19.79
2019-05-26T19:33:16.207Z,19.71
2019-05-26T19:36:20.387Z,19.56
2019-05-26T19:39:24.331Z,19.43
2019-05-26T19:42:28.345Z,19.31
2019-05-26T19:45:32.475Z,19.23
2019-05-26T19:48:37.541Z,19.16
2019-05-26T19:51:41.478Z,19.09
2019-05-26T19:54:45.934Z,18.97
2019-05-26T19:57:50.033Z,18.88
2019-05-26T20:00:54.459Z,18.77
2019-05-26T20:03:58.836Z,18.70
2019-05-26T20:07:03.314Z,18.61
2019-05-26T20:10:07.916Z,18.52
2019-05-26T20:13:11.945Z,18.41
2019-05-26T20:16:16.048Z,18.27
2019-05-26T20:19:20.401Z,18.17
2019-05-26T20:22:24.791Z,18.07
2019-05-26T20:25:29.676Z,17.98
2019-05-26T20:28:33.542Z,17.85
2019-05-26T20:31:37.483Z,17.73
2019-05-26T20:34:41.578Z,17.61
2019-05-26T20:37:45.843Z,17.54
2019-05-26T20:40:49.992Z,17.46
2019-05-26T20:43:54.158Z,17.38
2019-05-26T20:46:58.375Z,17.30
2019-05-26T20:50:02.399Z,17.06
2019-05-26T20:53:07.025Z,17.06
2019-05-26T20:56:11.213Z,16.95
2019-05-26T20:59:15.809Z,16.91
2019-05-26T21:02:20.064Z,16.82
2019-05-26T21:05:24.238Z,16.78
2019-05-26T21:08:28.234Z,16.69
2019-05-26T21:11:32.168Z,16.66
2019-05-26T21:14:36.386Z,16.51
2019-05-26T21:17:40.316Z,16.51
2019-05-26T21:20:44.529Z,16.43
2019-05-26T21:23:48.816Z,16.35
2019-05-26T21:26:52.768Z,16.30
2019-05-26T21:29:56.634Z,16.25
2019-05-26T21:33:00.736Z,16.18
2019-05-26T21:36:05.086Z,16.15
2019-05-26T21:39:09.475Z,16.14
2019-05-26T21:42:15.918Z,16.13
2019-05-26T21:45:19.898Z,16.06
2019-05-26T21:48:24.217Z,16.00
2019-05-26T21:51:28.247Z,15.92
2019-05-26T21:54:32.186Z,15.89
2019-05-26T21:57:36.208Z,15.82
2019-05-26T22:00:43.309Z,15.76
2019-05-26T22:03:47.364Z,15.69
2019-05-26T22:06:51.662Z,15.63
2019-05-26T22:09:55.701Z,15.62
2019-05-26T22:12:59.909Z,15.63
2019-05-26T22:16:04.028Z,15.56
2019-05-26T22:19:08.374Z,15.51
2019-05-26T22:22:12.417Z,15.42
2019-05-26T22:25:16.462Z,15.35
2019-05-26T22:28:20.417Z,15.30
2019-05-26T22:31:24.839Z,15.19
2019-05-26T22:34:29.038Z,15.17
2019-05-26T22:37:33.074Z,15.19
2019-05-26T22:40:37.012Z,15.23
2019-05-26T22:43:40.963Z,15.22
2019-05-26T22:46:45.201Z,15.19
2019-05-26T22:49:49.624Z,15.17
2019-05-26T22:52:53.889Z,15.16
2019-05-26T22:55:58.347Z,15.14
2019-05-26T22:59:02.661Z,15.09
2019-05-26T23:02:06.941Z,15.04
2019-05-26T23:05:11.572Z,14.99
2019-05-26T23:08:15.587Z,14.93
2019-05-26T23:11:19.660Z,14.84
2019-05-26T23:14:23.722Z,14.82
2019-05-26T23:17:27.995Z,14.80
2019-05-26T23:20:32.178Z,14.75
2019-05-26T23:23:36.302Z,14.70
2019-05-26T23:26:40.911Z,14.66
2019-05-26T23:29:45.227Z,14.63
2019-05-26T23:32:49.464Z,14.59
2019-05-26T23:35:53.409Z,14.56
2019-05-26T23:38:57.354Z,14.53
2019-05-26T23:42:01.819Z,14.49
2019-05-26T23:45:07.037Z,14.43
2019-05-26T23:48:11.640Z,14.45
2019-05-26T23:51:15.999Z,14.36
2019-05-26T23:54:20.731Z,14.32
2019-05-26T23:57:24.606Z,14.25
